createdAt,value
2022-08-04T00:02:37.058Z,962.08
2022-08-04T00:07:42.612Z,962.09
2022-08-04T00:12:39.944Z,962.11
2022-08-04T00:17:42.014Z,962.08
2022-08-04T00:22:43.709Z,962.08
2022-08-04T00:27:45.726Z,962.11
2022-08-04T00:32:47.534Z,962.1
2022-08-04T00:37:49.019Z,962.1
2022-08-04T00:42:58.905Z,962.05
2022-08-04T00:47:51.871Z,962.04
2022-08-04T00:52:53.493Z,962.03
2022-08-04T00:57:54.917Z,962.07
2022-08-04T01:02:56.422Z,962.1
2022-08-04T01:07:57.995Z,962.02
2022-08-04T01:12:59.224Z,962.08
2022-08-04T01:18:01.058Z,962.09
2022-08-04T01:23:02.397Z,962.09
2022-08-04T01:28:10.408Z,962.07
2022-08-04T01:33:12.635Z,962.03
2022-08-04T01:38:18.524Z,962.07
2022-08-04T01:43:15.811Z,962.07
2022-08-04T01:48:17.854Z,962.08
2022-08-04T01:53:19.171Z,962.08
2022-08-04T01:58:20.692Z,962.07
2022-08-04T02:03:22.290Z,962.01
2022-08-04T02:08:23.704Z,962
2022-08-04T02:13:25.234Z,962
2022-08-04T02:18:27.327Z,961.96
2022-08-04T02:23:28.530Z,961.95
2022-08-04T02:28:29.873Z,961.97
2022-08-04T02:33:31.992Z,961.96
2022-08-04T02:38:33.135Z,961.93
2022-08-04T02:43:50.420Z,961.9
2022-08-04T02:48:36.613Z,961.84
2022-08-04T02:53:38.017Z,961.82
2022-08-04T02:58:39.558Z,961.77
2022-08-04T03:03:41.119Z,961.78
2022-08-04T03:08:42.719Z,961.78
2022-08-04T03:13:44.997Z,961.77
2022-08-04T03:18:47.026Z,961.81
2022-08-04T03:53:58.702Z,961.87
2022-08-04T04:14:06.165Z,961.9
2022-08-04T04:19:07.563Z,961.97
2022-08-04T04:29:11.187Z,962.02
2022-08-04T04:34:13.136Z,962.04
2022-08-04T04:44:16.787Z,962.07
2022-08-04T04:49:18.487Z,962.16
2022-08-04T04:54:20.153Z,962.2
2022-08-04T04:59:21.610Z,962.22
2022-08-04T05:04:23.151Z,962.25
2022-08-04T05:09:32.489Z,962.2
2022-08-04T05:14:33.351Z,962.2
2022-08-04T05:19:26.997Z,962.19
2022-08-04T05:24:28.703Z,962.15
2022-08-04T05:29:31.038Z,962.18
2022-08-04T05:34:31.846Z,962.2
2022-08-04T05:39:34.546Z,962.16
2022-08-04T05:44:35.276Z,962.19
2022-08-04T05:49:36.589Z,962.15
2022-08-04T05:54:38.694Z,962.14
2022-08-04T05:59:40.626Z,962.15
2022-08-04T06:04:42.342Z,962.16
2022-08-04T06:09:43.534Z,962.11
2022-08-04T06:14:44.873Z,962.14
2022-08-04T06:19:57.963Z,962.15
2022-08-04T06:24:48.377Z,962.16
2022-08-04T06:29:50.769Z,962.17
2022-08-04T06:34:51.598Z,962.14
2022-08-04T06:39:52.915Z,962.12
2022-08-04T06:44:54.425Z,962.1
2022-08-04T06:51:29.056Z,962.11
2022-08-04T06:54:57.757Z,962.1
2022-08-04T06:59:59.667Z,962.14
2022-08-04T07:05:04.585Z,962.14
2022-08-04T07:10:02.700Z,962.17
2022-08-04T07:15:04.604Z,962.23
2022-08-04T07:20:06.119Z,962.24
2022-08-04T07:25:11.133Z,962.26
2022-08-04T07:30:09.421Z,962.18
2022-08-04T07:35:12.680Z,962.21
2022-08-04T07:40:12.794Z,962.23
2022-08-04T07:45:14.209Z,962.24
2022-08-04T07:50:15.394Z,962.2
2022-08-04T07:55:25.014Z,962.16
2022-08-04T08:00:19.130Z,962.19
2022-08-04T08:05:20.731Z,962.11
2022-08-04T08:10:22.273Z,962.13
2022-08-04T08:15:24.170Z,962.1
2022-08-04T08:20:29.313Z,962.15
2022-08-04T08:25:27.512Z,962.12
2022-08-04T08:30:31.334Z,962.14
2022-08-04T08:35:30.609Z,962.13
2022-08-04T08:40:40.984Z,962.08
2022-08-04T08:45:34.230Z,962.11
2022-08-04T08:50:35.472Z,962.17
2022-08-04T08:55:36.812Z,962.13
2022-08-04T09:00:38.177Z,962.16
2022-08-04T09:05:40.149Z,962.15
2022-08-04T09:10:42.086Z,962.18
2022-08-04T09:15:43.929Z,962.17
2022-08-04T09:20:46.005Z,962.07
2022-08-04T09:25:47.753Z,962.05
2022-08-04T09:30:49.306Z,962.05
2022-08-04T09:35:51.232Z,962.06
2022-08-04T09:40:55.698Z,962.07
2022-08-04T09:45:54.348Z,962.01
2022-08-04T09:50:56.332Z,962.07
2022-08-04T09:56:02.638Z,962.03
2022-08-04T10:00:59.662Z,961.99
2022-08-04T10:06:01.399Z,961.96
2022-08-04T10:11:02.951Z,962
2022-08-04T10:16:04.947Z,961.9
2022-08-04T10:21:10.383Z,961.93
2022-08-04T10:26:08.733Z,961.88
2022-08-04T10:31:09.300Z,961.82
2022-08-04T10:36:11.218Z,961.8
2022-08-04T10:41:13.203Z,961.76
2022-08-04T10:46:15.057Z,961.76
2022-08-04T10:51:17.213Z,961.7
2022-08-04T10:56:18.621Z,961.72
2022-08-04T11:01:51.096Z,961.69
2022-08-04T11:06:21.758Z,961.68
2022-08-04T11:11:23.028Z,961.61
2022-08-04T11:16:24.959Z,961.59
2022-08-04T11:21:27.042Z,961.66
2022-08-04T11:26:28.875Z,961.59
2022-08-04T11:31:30.293Z,961.56
2022-08-04T11:36:31.695Z,961.53
2022-08-04T11:41:33.591Z,961.57
2022-08-04T11:46:35.022Z,961.56
2022-08-04T11:51:36.569Z,961.58
2022-08-04T11:56:38.445Z,961.55
2022-08-04T12:01:39.412Z,961.5
2022-08-04T12:06:41.213Z,961.45
2022-08-04T12:11:42.570Z,961.42
2022-08-04T12:16:44.742Z,961.35
2022-08-04T12:21:46.626Z,961.38
2022-08-04T12:26:48.491Z,961.33
2022-08-04T12:31:50.528Z,961.33
2022-08-04T12:36:52.090Z,961.29
2022-08-04T12:41:54.085Z,961.24
2022-08-04T12:46:55.785Z,961.2
2022-08-04T12:52:07.224Z,961.27
2022-08-04T12:56:59.341Z,961.24
2022-08-04T13:02:07.701Z,961.14
2022-08-04T13:07:03.241Z,961.09
2022-08-04T13:12:04.506Z,961.11
2022-08-04T13:17:06.541Z,961.03
2022-08-04T13:22:08.229Z,961.01
2022-08-04T13:27:10.329Z,960.96
2022-08-04T13:32:11.819Z,960.93
2022-08-04T13:37:13.291Z,960.9
2022-08-04T13:42:15.420Z,960.84
2022-08-04T13:47:16.840Z,960.83
2022-08-04T13:52:18.810Z,960.75
2022-08-04T13:57:20.489Z,960.71
2022-08-04T14:02:21.738Z,960.65
2022-08-04T14:07:23.528Z,960.61
2022-08-04T14:12:37.931Z,960.59
2022-08-04T14:17:30.130Z,960.52
2022-08-04T14:22:27.698Z,960.51
2022-08-04T14:27:29.297Z,960.52
2022-08-04T14:32:30.829Z,960.53
2022-08-04T14:37:36.152Z,960.5
2022-08-04T14:42:34.370Z,960.47
2022-08-04T14:47:35.625Z,960.42
2022-08-04T14:52:36.864Z,960.48
2022-08-04T14:58:33.556Z,960.42
2022-08-04T15:02:39.951Z,960.41
2022-08-04T15:07:41.787Z,960.36
2022-08-04T15:12:43.611Z,960.35
2022-08-04T15:17:45.292Z,960.35
2022-08-04T15:22:47.045Z,960.28
2022-08-04T15:27:49.040Z,960.22
2022-08-04T15:32:50.430Z,960.25
2022-08-04T15:37:51.790Z,960.16
2022-08-04T15:42:53.622Z,960.14
2022-08-04T15:47:58.570Z,960.11
2022-08-04T15:53:00.872Z,960.01
2022-08-04T15:57:59.385Z,959.97
2022-08-04T16:03:01.342Z,959.92
2022-08-04T16:08:02.871Z,959.91
2022-08-04T16:13:04.876Z,959.88
2022-08-04T16:18:10.806Z,959.85
2022-08-04T16:23:08.615Z,959.86
2022-08-04T16:28:10.074Z,959.82
2022-08-04T16:33:11.877Z,959.82
2022-08-04T16:38:13.797Z,959.82
2022-08-04T16:43:15.974Z,959.81
2022-08-04T16:48:17.732Z,959.78
2022-08-04T16:53:40.022Z,959.78
2022-08-04T16:58:21.402Z,959.74
2022-08-04T17:03:23.361Z,959.69
2022-08-04T17:08:29.848Z,959.66
2022-08-04T17:14:01.516Z,959.65
2022-08-04T17:18:28.141Z,959.62
2022-08-04T17:24:13.988Z,959.62
2022-08-04T17:28:38.349Z,959.6
2022-08-04T17:33:54.554Z,959.63
2022-08-04T17:38:34.619Z,959.62
2022-08-04T17:44:00.781Z,959.6
2022-08-04T17:48:37.517Z,959.56
2022-08-04T17:53:53.013Z,959.6
2022-08-04T17:58:40.662Z,959.52
2022-08-04T18:03:42.599Z,959.56
2022-08-04T18:08:45.565Z,959.56
2022-08-04T18:28:57.435Z,959.65
2022-08-04T18:33:59.282Z,959.65
2022-08-04T19:04:32.719Z,959.9
2022-08-04T19:14:13.071Z,960.01
2022-08-04T19:19:13.271Z,960.05
2022-08-04T19:29:16.572Z,960.12
2022-08-04T19:34:17.828Z,960.18
2022-08-04T19:39:19.253Z,960.19
2022-08-04T19:44:20.704Z,960.24
2022-08-04T19:50:03.360Z,960.28
2022-08-04T19:54:27.293Z,960.29
2022-08-04T19:59:25.564Z,960.28
2022-08-04T20:04:27.117Z,960.26
2022-08-04T20:09:28.541Z,960.26
2022-08-04T20:14:31.869Z,960.31
2022-08-04T20:19:32.163Z,960.28
2022-08-04T20:24:37.195Z,960.28
2022-08-04T20:29:37.130Z,960.24
2022-08-04T20:34:37.705Z,960.22
2022-08-04T20:39:39.872Z,960.25
2022-08-04T20:44:42.056Z,960.2
2022-08-04T20:49:43.171Z,960.18
2022-08-04T20:54:48.053Z,960.18
2022-08-04T20:59:50.447Z,960.19
2022-08-04T21:04:48.662Z,960.15
2022-08-04T21:09:49.900Z,960.2
2022-08-04T21:14:51.022Z,960.19
2022-08-04T21:19:52.564Z,960.22
2022-08-04T21:24:54.398Z,960.28
2022-08-04T21:29:56.346Z,960.32
2022-08-04T21:34:58.310Z,960.34
2022-08-04T21:40:14.895Z,960.3
2022-08-04T21:45:02.409Z,960.33
2022-08-04T21:50:03.718Z,960.36
2022-08-04T21:55:05.281Z,960.32
2022-08-04T22:15:22.585Z,960.29
2022-08-04T22:20:27.480Z,960.33
2022-08-04T22:30:17.010Z,960.27
2022-08-04T22:35:30.760Z,960.24
2022-08-04T22:40:19.736Z,960.21
2022-08-04T22:45:28.710Z,960.22
2022-08-04T22:50:27.215Z,960.27
2022-08-04T22:55:25.356Z,960.22
2022-08-04T23:00:28.445Z,960.23
2022-08-04T23:05:29.161Z,960.19
2022-08-04T23:10:29.481Z,960.21
2022-08-04T23:15:33.423Z,960.24
2022-08-04T23:20:39.364Z,960.26
2022-08-04T23:26:04.807Z,960.25
2022-08-04T23:30:37.075Z,960.17
2022-08-04T23:35:38.399Z,960.12
2022-08-04T23:40:50.210Z,960.1
2022-08-04T23:45:56.988Z,960.08
2022-08-04T23:50:42.641Z,960.07
2022-08-04T23:55:44.626Z,959.99
